Time;durP1;ratioP1;P1;durP2;ratioP2;P2;SDS_P1;SDS_P2;PMS_P1;PMS_P2;Temp;Humidity;BMP_temperature;BMP_pressure;BME280_temperature;BME280_humidity;BME280_pressure;Samples;Min_cycle;Max_cycle;Signal;HPM_P1;HPM_P2
2021/12/13 00:00:49;;;;;;;45.88;25.50;;;;;;;;;;5022710;28;20124;-43
2021/12/13 00:03:18;;;;;;;33.78;19.35;;;;;;;;;;5024266;28;20109;-45
2021/12/13 00:05:48;;;;;;;53.92;26.83;;;;;;;;;;5020005;28;20227;-45
2021/12/13 00:08:17;;;;;;;59.63;29.13;;;;;;;;;;5023980;28;20080;-46
2021/12/13 00:10:47;;;;;;;46.13;23.85;;;;;;;;;;5027522;28;20029;-43
2021/12/13 00:13:16;;;;;;;42.08;23.60;;;;;;;;;;5026509;28;20056;-44
2021/12/13 00:15:47;;;;;;;46.58;26.33;;;;;;;;;;5025503;28;20974;-46
2021/12/13 00:18:17;;;;;;;50.70;26.48;;;;;;;;;;5021767;28;20477;-45
2021/12/13 00:20:47;;;;;;;45.50;23.80;;;;;;;;;;5026724;28;20038;-45
2021/12/13 00:23:16;;;;;;;43.75;23.42;;;;;;;;;;5021364;28;20025;-46
2021/12/13 00:25:44;;;;;;;35.90;20.63;;;;;;;;;;5031082;28;20105;-45
2021/12/13 00:28:13;;;;;;;38.65;22.65;;;;;;;;;;5032475;28;20035;-45
2021/12/13 00:30:43;;;;;;;36.08;20.70;;;;;;;;;;5030667;28;20025;-45
2021/12/13 00:33:15;;;;;;;45.45;26.27;;;;;;;;;;5032538;28;20032;-46
2021/12/13 00:35:53;;;;;;;33.35;18.27;;;;;;;;;;5032132;28;20025;-45
2021/12/13 00:38:20;;;;;;;47.63;24.40;;;;;;;;;;5032064;28;20327;-45
2021/12/13 00:40:48;;;;;;;45.05;22.75;;;;;;;;;;5031973;28;20025;-46
2021/12/13 00:43:14;;;;;;;34.60;18.02;;;;;;;;;;5032372;28;20136;-45
2021/12/13 00:45:47;;;;;;;42.47;22.15;;;;;;;;;;5032505;28;20381;-45
2021/12/13 00:48:13;;;;;;;51.17;27.95;;;;;;;;;;5032046;28;20059;-46
2021/12/13 00:51:09;;;;;;;54.65;28.90;;;;;;;;;;5023787;28;20044;-45
2021/12/13 00:53:38;;;;;;;50.20;24.30;;;;;;;;;;5020605;28;20459;-46
2021/12/13 00:56:24;;;;;;;39.08;21.45;;;;;;;;;;5031957;28;20021;-45
2021/12/13 00:58:52;;;;;;;39.17;19.88;;;;;;;;;;5031792;28;20108;-45
2021/12/13 01:01:18;;;;;;;36.28;19.90;;;;;;;;;;5029207;28;20351;-44
2021/12/13 01:03:47;;;;;;;40.05;21.42;;;;;;;;;;5031882;28;20114;-44
2021/12/13 01:06:39;;;;;;;33.90;19.30;;;;;;;;;;5032041;28;20071;-44
2021/12/13 01:09:24;;;;;;;40.13;21.25;;;;;;;;;;5011659;28;20152;-44
2021/12/13 01:11:50;;;;;;;40.65;24.10;;;;;;;;;;5053769;28;20029;-43
2021/12/13 01:14:29;;;;;;;46.03;24.77;;;;;;;;;;5055138;28;20500;-44
2021/12/13 01:17:09;;;;;;;31.50;18.90;;;;;;;;;;5055066;28;20087;-45
2021/12/13 01:19:52;;;;;;;34.97;20.65;;;;;;;;;;5055218;28;20037;-44
2021/12/13 01:22:42;;;;;;;38.55;22.52;;;;;;;;;;5055152;28;20167;-44
2021/12/13 01:25:24;;;;;;;40.23;19.50;;;;;;;;;;5055167;28;20157;-44
2021/12/13 01:27:57;;;;;;;47.65;25.73;;;;;;;;;;5055088;28;20028;-45
2021/12/13 01:30:27;;;;;;;44.63;23.77;;;;;;;;;;5055135;28;20025;-44
2021/12/13 01:32:56;;;;;;;41.53;21.77;;;;;;;;;;5054771;28;20052;-44
2021/12/13 01:35:26;;;;;;;34.03;19.05;;;;;;;;;;5055144;28;20100;-44
2021/12/13 01:37:54;;;;;;;46.38;25.08;;;;;;;;;;5054913;28;20461;-45
2021/12/13 01:40:25;;;;;;;38.30;20.27;;;;;;;;;;5054784;28;20103;-45
2021/12/13 01:42:59;;;;;;;42.92;23.00;;;;;;;;;;5054744;28;20028;-44
2021/12/13 01:45:26;;;;;;;57.35;29.13;;;;;;;;;;5054477;28;20033;-44
2021/12/13 01:47:53;;;;;;;43.22;24.15;;;;;;;;;;5054834;28;20037;-44
2021/12/13 01:50:31;;;;;;;39.20;22.42;;;;;;;;;;5054705;28;20024;-44
2021/12/13 01:52:58;;;;;;;33.42;19.90;;;;;;;;;;5054646;28;20035;-44
2021/12/13 01:55:35;;;;;;;35.53;19.75;;;;;;;;;;5054478;28;20040;-44
2021/12/13 02:01:09;;;;;;;37.25;21.25;;;;;;;;;;5054671;28;20504;-45
2021/12/13 02:03:38;;;;;;;35.63;19.65;;;;;;;;;;5054539;28;20029;-44
2021/12/13 02:06:04;;;;;;;46.33;25.90;;;;;;;;;;5054372;28;20025;-47
2021/12/13 02:08:31;;;;;;;33.33;18.27;;;;;;;;;;5054394;28;20029;-46
2021/12/13 02:10:57;;;;;;;33.85;18.92;;;;;;;;;;5054262;28;20025;-45
2021/12/13 02:13:25;;;;;;;35.85;18.98;;;;;;;;;;5054077;28;20033;-45
2021/12/13 02:18:51;;;;;;;28.98;16.20;;;;;;;;;;5038329;28;20358;-45
2021/12/13 02:21:25;;;;;;;34.10;18.48;;;;;;;;;;5054346;28;20018;-45
2021/12/13 02:23:55;;;;;;;36.55;19.83;;;;;;;;;;5054004;28;20025;-46
2021/12/13 02:26:21;;;;;;;27.73;15.45;;;;;;;;;;5054257;28;20031;-45
2021/12/13 02:28:49;;;;;;;33.42;17.60;;;;;;;;;;5053945;28;20032;-44
2021/12/13 02:31:24;;;;;;;26.67;16.77;;;;;;;;;;5054243;28;20427;-45
2021/12/13 02:33:58;;;;;;;31.20;17.60;;;;;;;;;;5053694;28;20120;-45
2021/12/13 02:36:33;;;;;;;30.40;17.55;;;;;;;;;;5053993;28;20025;-45
2021/12/13 02:39:01;;;;;;;30.65;17.30;;;;;;;;;;5053914;28;20025;-45
2021/12/13 02:41:30;;;;;;;39.20;21.45;;;;;;;;;;5053833;28;20032;-45
2021/12/13 02:44:00;;;;;;;29.35;17.23;;;;;;;;;;5053587;28;20128;-46
2021/12/13 02:46:26;;;;;;;24.05;15.23;;;;;;;;;;5053798;28;20481;-44
2021/12/13 02:48:58;;;;;;;34.05;19.48;;;;;;;;;;5053727;28;20052;-45
2021/12/13 02:51:35;;;;;;;39.85;22.75;;;;;;;;;;5053744;28;20460;-44
2021/12/13 02:54:08;;;;;;;30.85;18.92;;;;;;;;;;5053662;28;20562;-45
2021/12/13 02:56:39;;;;;;;29.55;16.88;;;;;;;;;;5053439;28;20036;-44
2021/12/13 02:59:07;;;;;;;27.45;16.23;;;;;;;;;;5053094;28;20452;-45
2021/12/13 03:01:45;;;;;;;29.15;17.30;;;;;;;;;;5053641;28;20094;-48
2021/12/13 03:04:16;;;;;;;33.33;19.00;;;;;;;;;;5053723;28;20029;-47
2021/12/13 03:06:47;;;;;;;26.20;15.63;;;;;;;;;;5053640;28;20028;-46
2021/12/13 03:09:16;;;;;;;34.33;18.92;;;;;;;;;;5053540;28;20405;-45
2021/12/13 03:11:44;;;;;;;30.63;17.38;;;;;;;;;;5053156;28;20021;-48
2021/12/13 03:14:13;;;;;;;30.40;16.98;;;;;;;;;;5053130;28;20165;-46
2021/12/13 03:16:45;;;;;;;28.35;16.65;;;;;;;;;;5053326;28;20439;-46
2021/12/13 03:19:18;;;;;;;26.40;15.40;;;;;;;;;;5053209;28;20025;-46
2021/12/13 03:22:02;;;;;;;24.00;14.15;;;;;;;;;;5053329;28;20017;-45
2021/12/13 03:24:32;;;;;;;26.65;15.30;;;;;;;;;;5053318;28;20017;-47
2021/12/13 03:27:16;;;;;;;27.23;14.90;;;;;;;;;;5053132;28;20036;-46
2021/12/13 03:29:58;;;;;;;30.73;16.50;;;;;;;;;;5053356;28;20021;-47
2021/12/13 03:32:25;;;;;;;25.90;13.95;;;;;;;;;;5053069;28;20033;-45
2021/12/13 03:35:03;;;;;;;22.35;13.82;;;;;;;;;;5053333;28;20477;-47
2021/12/13 03:37:30;;;;;;;25.42;13.85;;;;;;;;;;5053131;28;20037;-46
2021/12/13 03:39:59;;;;;;;29.00;16.88;;;;;;;;;;5053307;28;20021;-45
2021/12/13 03:42:32;;;;;;;24.10;13.93;;;;;;;;;;5053083;28;20393;-45
2021/12/13 03:44:59;;;;;;;27.60;15.55;;;;;;;;;;5053024;28;20400;-46
2021/12/13 03:47:33;;;;;;;27.38;14.95;;;;;;;;;;5053051;28;20025;-46
2021/12/13 03:50:01;;;;;;;24.02;13.68;;;;;;;;;;5053333;28;20469;-46
2021/12/13 03:52:29;;;;;;;26.77;14.90;;;;;;;;;;5052982;28;20389;-47
2021/12/13 03:54:57;;;;;;;28.10;16.05;;;;;;;;;;5053014;28;20029;-47
2021/12/13 03:57:24;;;;;;;26.95;15.48;;;;;;;;;;5052773;28;20021;-47
2021/12/13 03:59:51;;;;;;;29.33;16.73;;;;;;;;;;5052836;28;20040;-46
2021/12/13 04:02:19;;;;;;;27.25;16.13;;;;;;;;;;5053183;28;20014;-46
2021/12/13 04:04:50;;;;;;;28.38;15.63;;;;;;;;;;5052802;28;20017;-46
2021/12/13 04:07:18;;;;;;;28.65;16.35;;;;;;;;;;5053123;28;20025;-46
2021/12/13 04:09:47;;;;;;;22.98;13.60;;;;;;;;;;5053059;28;20545;-46
2021/12/13 04:12:15;;;;;;;28.30;15.38;;;;;;;;;;5054411;28;20040;-45
2021/12/13 04:14:49;;;;;;;31.83;17.42;;;;;;;;;;5056293;28;20033;-45
2021/12/13 04:17:33;;;;;;;25.60;14.80;;;;;;;;;;5056250;28;20045;-46
2021/12/13 04:20:00;;;;;;;34.10;16.77;;;;;;;;;;5056366;28;20029;-47
2021/12/13 04:22:28;;;;;;;30.17;16.35;;;;;;;;;;5056471;28;20025;-46
2021/12/13 04:25:20;;;;;;;34.63;18.17;;;;;;;;;;5056348;28;20108;-46
2021/12/13 04:28:04;;;;;;;25.90;15.77;;;;;;;;;;4994802;28;20035;-45
2021/12/13 04:30:35;;;;;;;30.95;16.67;;;;;;;;;;4994855;28;20152;-46
2021/12/13 04:33:05;;;;;;;25.40;14.60;;;;;;;;;;4994636;28;20045;-46
2021/12/13 04:35:33;;;;;;;24.77;14.68;;;;;;;;;;4994700;28;20264;-44
2021/12/13 04:38:01;;;;;;;25.67;14.65;;;;;;;;;;4994499;28;20132;-46
2021/12/13 04:40:29;;;;;;;26.05;14.55;;;;;;;;;;4994883;28;20034;-46
2021/12/13 04:43:04;;;;;;;25.63;14.13;;;;;;;;;;4994584;28;20034;-44
2021/12/13 04:45:31;;;;;;;28.83;15.43;;;;;;;;;;4994561;28;20483;-45
2021/12/13 04:48:06;;;;;;;26.73;15.75;;;;;;;;;;4994640;28;20041;-45
2021/12/13 04:50:37;;;;;;;30.05;16.55;;;;;;;;;;4994536;28;20117;-47
2021/12/13 04:53:04;;;;;;;35.20;19.30;;;;;;;;;;4994915;28;20043;-47
2021/12/13 04:55:33;;;;;;;30.67;18.83;;;;;;;;;;4994391;28;20073;-46
2021/12/13 04:58:00;;;;;;;31.13;17.55;;;;;;;;;;4994368;28;20042;-46
2021/12/13 05:00:28;;;;;;;23.02;14.30;;;;;;;;;;4994482;28;20586;-45
2021/12/13 05:02:58;;;;;;;21.85;12.98;;;;;;;;;;5010257;28;20401;-45
2021/12/13 05:05:24;;;;;;;24.70;14.20;;;;;;;;;;5041192;28;20040;-45
2021/12/13 05:07:52;;;;;;;20.90;11.68;;;;;;;;;;5055727;28;20051;-45
2021/12/13 05:10:19;;;;;;;23.00;13.10;;;;;;;;;;5055717;28;20413;-46
2021/12/13 05:13:02;;;;;;;25.17;14.75;;;;;;;;;;5055259;28;20064;-44
2021/12/13 05:15:29;;;;;;;29.20;14.93;;;;;;;;;;5053820;28;20041;-44
2021/12/13 05:17:58;;;;;;;31.30;15.43;;;;;;;;;;5055600;28;20036;-45
2021/12/13 05:20:32;;;;;;;27.00;15.93;;;;;;;;;;5055556;28;20063;-46
2021/12/13 05:23:05;;;;;;;24.10;13.75;;;;;;;;;;5055004;28;20032;-48
2021/12/13 05:25:36;;;;;;;23.35;13.63;;;;;;;;;;5055272;28;20041;-46
2021/12/13 05:28:09;;;;;;;25.33;14.18;;;;;;;;;;5055080;28;20146;-47
2021/12/13 05:30:36;;;;;;;27.58;13.93;;;;;;;;;;5055084;28;20078;-47
2021/12/13 05:33:08;;;;;;;29.20;16.27;;;;;;;;;;5054950;28;20109;-48
2021/12/13 05:35:34;;;;;;;;;;;;;;;;;;5055525;28;20036;-44
2021/12/13 05:38:03;;;;;;;46.95;25.10;;;;;;;;;;5055142;28;20280;-46
2021/12/13 05:40:34;;;;;;;54.33;27.83;;;;;;;;;;5055050;28;20028;-45
2021/12/13 05:43:01;;;;;;;45.78;25.15;;;;;;;;;;5054683;28;20025;-45
2021/12/13 05:45:33;;;;;;;35.53;21.52;;;;;;;;;;5054702;28;20029;-44
2021/12/13 05:48:03;;;;;;;40.15;21.45;;;;;;;;;;5055023;28;20041;-47
2021/12/13 05:50:35;;;;;;;42.90;23.45;;;;;;;;;;5054680;28;20124;-48
2021/12/13 05:53:04;;;;;;;113.22;53.05;;;;;;;;;;5054863;28;20021;-44
2021/12/13 05:55:31;;;;;;;70.78;37.47;;;;;;;;;;5054555;28;20033;-44
2021/12/13 05:57:57;;;;;;;58.78;32.22;;;;;;;;;;5053221;28;20024;-46
2021/12/13 06:00:26;;;;;;;58.50;33.13;;;;;;;;;;5054780;28;20025;-46
2021/12/13 06:03:15;;;;;;;49.95;28.02;;;;;;;;;;5054469;28;20052;-46
2021/12/13 06:05:52;;;;;;;48.70;28.00;;;;;;;;;;5054668;28;20356;-48
2021/12/13 06:08:23;;;;;;;53.67;30.20;;;;;;;;;;5054821;28;20028;-46
2021/12/13 06:10:56;;;;;;;49.92;25.92;;;;;;;;;;5054358;28;20029;-47
2021/12/13 06:13:24;;;;;;;62.83;33.58;;;;;;;;;;5053942;28;20029;-45
2021/12/13 06:15:51;;;;;;;55.42;29.27;;;;;;;;;;5054213;28;20052;-46
2021/12/13 06:18:20;;;;;;;52.45;29.42;;;;;;;;;;5054386;28;20143;-47
2021/12/13 06:20:56;;;;;;;51.75;30.77;;;;;;;;;;5054085;28;20021;-45
2021/12/13 06:23:25;;;;;;;59.20;31.67;;;;;;;;;;5054471;28;20024;-46
2021/12/13 06:26:03;;;;;;;52.38;28.50;;;;;;;;;;5054194;28;20075;-47
2021/12/13 06:28:31;;;;;;;55.05;28.15;;;;;;;;;;5054050;28;20029;-47
2021/12/13 06:31:04;;;;;;;51.80;28.45;;;;;;;;;;5054000;28;20071;-46
2021/12/13 06:33:44;;;;;;;50.85;28.15;;;;;;;;;;5053807;28;20033;-48
2021/12/13 06:36:11;;;;;;;60.75;30.38;;;;;;;;;;5053487;28;20028;-48
2021/12/13 06:38:50;;;;;;;50.88;28.10;;;;;;;;;;5053775;28;20104;-46
2021/12/13 06:41:31;;;;;;;46.55;27.60;;;;;;;;;;5053835;28;20021;-46
2021/12/13 06:43:59;;;;;;;48.55;28.60;;;;;;;;;;5053458;28;20071;-45
2021/12/13 06:46:25;;;;;;;48.20;26.75;;;;;;;;;;5053643;28;20036;-46
2021/12/13 06:48:58;;;;;;;50.25;28.10;;;;;;;;;;5053801;28;20060;-45
2021/12/13 06:51:37;;;;;;;50.15;27.27;;;;;;;;;;5053547;28;20025;-45
2021/12/13 06:54:09;;;;;;;58.78;31.05;;;;;;;;;;5053570;28;20072;-45
2021/12/13 06:56:35;;;;;;;73.18;37.47;;;;;;;;;;5053546;28;20029;-45
2021/12/13 06:59:03;;;;;;;96.18;41.00;;;;;;;;;;5053550;28;20033;-46
2021/12/13 07:01:33;;;;;;;82.35;38.28;;;;;;;;;;5053485;28;20061;-46
2021/12/13 07:04:10;;;;;;;63.67;34.10;;;;;;;;;;5053644;28;20029;-46
2021/12/13 07:06:39;;;;;;;60.55;31.38;;;;;;;;;;5053535;28;20025;-45
2021/12/13 07:09:05;;;;;;;51.38;28.27;;;;;;;;;;5053513;28;20020;-45
2021/12/13 07:11:40;;;;;;;57.10;30.40;;;;;;;;;;5053649;28;20021;-48
2021/12/13 07:14:09;;;;;;;57.58;29.90;;;;;;;;;;5052979;28;20086;-46
2021/12/13 07:16:38;;;;;;;62.22;33.05;;;;;;;;;;5053334;28;20123;-45
2021/12/13 07:19:19;;;;;;;58.38;29.85;;;;;;;;;;5053351;28;20029;-45
2021/12/13 07:21:50;;;;;;;52.88;30.88;;;;;;;;;;5053132;28;20029;-45
2021/12/13 07:24:16;;;;;;;44.50;26.37;;;;;;;;;;5053459;28;20392;-48
2021/12/13 07:26:49;;;;;;;42.70;24.35;;;;;;;;;;5053203;28;20408;-47
2021/12/13 07:29:28;;;;;;;48.17;26.60;;;;;;;;;;5053220;28;20447;-45
2021/12/13 07:32:17;;;;;;;44.80;25.67;;;;;;;;;;5053160;28;20514;-45
2021/12/13 07:34:52;;;;;;;44.22;25.35;;;;;;;;;;4991978;28;20093;-47
2021/12/13 07:37:19;;;;;;;46.67;27.77;;;;;;;;;;4992058;28;20070;-45
2021/12/13 07:39:45;;;;;;;46.67;27.77;;;;;;;;;;5007658;28;20418;-45
2021/12/13 07:42:13;;;;;;;76.60;39.75;;;;;;;;;;4991717;28;20034;-46
2021/12/13 07:44:44;;;;;;;94.40;46.13;;;;;;;;;;4991494;28;20486;-47
2021/12/13 07:47:16;;;;;;;108.28;50.88;;;;;;;;;;4994989;28;20034;-44
2021/12/13 07:49:45;;;;;;;116.50;55.33;;;;;;;;;;4995630;28;20029;-44
2021/12/13 07:52:23;;;;;;;67.60;35.72;;;;;;;;;;4995684;28;20061;-46
2021/12/13 07:54:49;;;;;;;56.30;31.02;;;;;;;;;;4995569;28;20042;-43
2021/12/13 07:57:18;;;;;;;52.95;30.52;;;;;;;;;;4995476;28;20026;-45
2021/12/13 07:59:44;;;;;;;58.85;31.50;;;;;;;;;;4995320;28;20034;-45
2021/12/13 08:02:18;;;;;;;57.47;32.40;;;;;;;;;;4995453;28;20034;-44
2021/12/13 08:04:46;;;;;;;65.18;35.33;;;;;;;;;;4995585;28;20494;-47
2021/12/13 08:07:21;;;;;;;72.55;38.10;;;;;;;;;;4995404;28;20394;-44
2021/12/13 08:09:49;;;;;;;73.88;38.30;;;;;;;;;;4995345;28;20034;-48
2021/12/13 08:12:24;;;;;;;72.43;36.67;;;;;;;;;;5038605;28;20575;-46
2021/12/13 08:14:52;;;;;;;74.82;38.92;;;;;;;;;;5056321;28;20045;-49
2021/12/13 08:17:20;;;;;;;70.32;35.90;;;;;;;;;;5056448;28;20044;-45
2021/12/13 08:19:57;;;;;;;61.28;32.60;;;;;;;;;;5056699;28;20078;-48
2021/12/13 08:22:28;;;;;;;64.53;31.85;;;;;;;;;;5056679;28;20079;-45
2021/12/13 08:25:07;;;;;;;58.92;31.58;;;;;;;;;;5056589;28;20135;-46
2021/12/13 08:27:38;;;;;;;54.95;30.27;;;;;;;;;;5056442;28;20538;-45
2021/12/13 08:30:06;;;;;;;43.65;25.00;;;;;;;;;;5056221;28;20032;-44
2021/12/13 08:32:32;;;;;;;45.15;23.45;;;;;;;;;;5056244;28;20025;-44
2021/12/13 08:35:02;;;;;;;42.45;23.45;;;;;;;;;;5055982;28;20393;-47
2021/12/13 08:37:30;;;;;;;40.97;22.88;;;;;;;;;;5056426;28;20025;-45
2021/12/13 08:39:59;;;;;;;45.15;23.90;;;;;;;;;;5056321;28;20396;-44
2021/12/13 08:42:26;;;;;;;44.58;22.55;;;;;;;;;;5056031;28;20436;-44
2021/12/13 08:44:52;;;;;;;40.88;21.83;;;;;;;;;;5055812;28;20025;-45
2021/12/13 08:47:20;;;;;;;46.72;24.67;;;;;;;;;;5056077;28;20041;-45
2021/12/13 08:49:50;;;;;;;56.88;30.73;;;;;;;;;;5055893;28;20018;-47
2021/12/13 08:52:16;;;;;;;57.05;30.00;;;;;;;;;;5055977;28;20052;-46
2021/12/13 08:54:45;;;;;;;47.42;25.65;;;;;;;;;;5055997;28;20408;-45
2021/12/13 08:57:46;;;;;;;40.83;23.90;;;;;;;;;;5053792;28;20036;-45
2021/12/13 09:00:13;;;;;;;46.38;22.77;;;;;;;;;;4994378;28;20109;-44
2021/12/13 09:02:41;;;;;;;49.40;23.83;;;;;;;;;;4994168;28;20148;-43
2021/12/13 09:05:18;;;;;;;42.53;23.10;;;;;;;;;;4994413;28;20042;-45
2021/12/13 09:08:07;;;;;;;43.35;21.80;;;;;;;;;;4994165;28;20038;-44
2021/12/13 09:10:42;;;;;;;38.05;21.20;;;;;;;;;;4917495;29;20036;-52
2021/12/13 09:13:08;;;;;;;38.45;21.40;;;;;;;;;;4917175;29;20072;-45
2021/12/13 09:15:37;;;;;;;42.67;24.00;;;;;;;;;;4917078;29;20509;-51
2021/12/13 09:18:04;;;;;;;46.30;23.73;;;;;;;;;;4917069;29;20051;-45
2021/12/13 09:20:33;;;;;;;35.75;20.48;;;;;;;;;;4917108;29;20040;-45
2021/12/13 09:23:22;;;;;;;35.47;20.75;;;;;;;;;;4917304;29;20032;-46
2021/12/13 09:25:48;;;;;;;36.17;19.08;;;;;;;;;;4916931;29;20621;-45
2021/12/13 09:28:16;;;;;;;31.00;18.73;;;;;;;;;;4916808;29;20087;-45
2021/12/13 09:30:45;;;;;;;34.53;19.85;;;;;;;;;;4917128;29;20070;-45
2021/12/13 09:33:19;;;;;;;40.92;21.13;;;;;;;;;;4921596;28;20032;-44
2021/12/13 09:35:48;;;;;;;35.28;19.33;;;;;;;;;;4993818;28;20038;-45
2021/12/13 09:38:20;;;;;;;34.50;20.48;;;;;;;;;;4993882;28;20018;-44
2021/12/13 09:40:55;;;;;;;35.08;19.23;;;;;;;;;;4993691;28;20038;-44
2021/12/13 09:43:22;;;;;;;36.78;22.42;;;;;;;;;;4993393;28;20037;-44
2021/12/13 09:45:53;;;;;;;55.20;26.98;;;;;;;;;;4993430;28;20418;-44
2021/12/13 09:48:22;;;;;;;33.55;21.02;;;;;;;;;;5041775;28;20067;-46
2021/12/13 09:50:50;;;;;;;42.00;23.42;;;;;;;;;;5054752;28;20033;-50
2021/12/13 09:53:16;;;;;;;61.65;32.92;;;;;;;;;;5054780;28;20092;-47
2021/12/13 09:55:50;;;;;;;48.05;27.98;;;;;;;;;;5054724;28;20435;-49
2021/12/13 09:58:19;;;;;;;48.88;26.65;;;;;;;;;;5054584;28;20435;-50
2021/12/13 10:00:57;;;;;;;43.80;24.35;;;;;;;;;;5054476;28;20052;-48
2021/12/13 10:03:31;;;;;;;36.25;21.98;;;;;;;;;;5054436;28;20052;-45
2021/12/13 10:06:03;;;;;;;40.90;23.60;;;;;;;;;;5037744;28;20025;-46
2021/12/13 10:08:37;;;;;;;46.30;25.50;;;;;;;;;;5034136;28;20070;-47
2021/12/13 10:11:09;;;;;;;52.80;28.58;;;;;;;;;;5033877;28;20030;-47
2021/12/13 10:13:38;;;;;;;;;;;;;;;;;;5034070;28;20462;-47
2021/12/13 10:16:09;;;;;;;55.90;28.02;;;;;;;;;;5033982;28;19921;-44
2021/12/13 10:18:41;;;;;;;67.65;34.67;;;;;;;;;;5034270;28;20053;-44
2021/12/13 10:21:06;;;;;;;;;;;;;;;;;;5034795;28;20057;-45
2021/12/13 10:23:35;;;;;;;58.33;30.00;;;;;;;;;;5034223;28;20408;-46
2021/12/13 10:26:05;;;;;;;56.55;29.35;;;;;;;;;;5034042;28;20025;-45
2021/12/13 10:28:33;;;;;;;78.95;43.17;;;;;;;;;;5033972;28;20486;-44
2021/12/13 10:31:02;;;;;;;76.50;42.80;;;;;;;;;;5033954;28;20398;-45
2021/12/13 10:33:29;;;;;;;75.20;41.20;;;;;;;;;;5032392;28;20402;-46
2021/12/13 10:35:56;;;;;;;64.30;35.97;;;;;;;;;;5033889;28;20105;-43
2021/12/13 10:38:24;;;;;;;74.43;38.05;;;;;;;;;;5033752;28;20362;-45
2021/12/13 10:40:52;;;;;;;82.97;42.65;;;;;;;;;;5033829;28;20037;-50
2021/12/13 10:43:23;;;;;;;78.97;42.05;;;;;;;;;;5032170;28;20032;-51
2021/12/13 10:45:56;;;;;;;90.95;47.17;;;;;;;;;;5033521;28;20033;-49
2021/12/13 10:48:26;;;;;;;104.45;51.22;;;;;;;;;;5032129;28;20160;-49
2021/12/13 10:50:55;;;;;;;62.38;32.70;;;;;;;;;;5032471;28;20033;-46
2021/12/13 10:53:22;;;;;;;60.50;32.47;;;;;;;;;;5031447;28;20021;-50
2021/12/13 10:55:53;;;;;;;73.93;37.25;;;;;;;;;;5032029;28;20026;-49
2021/12/13 10:58:21;;;;;;;62.92;33.97;;;;;;;;;;5033825;28;20032;-52
2021/12/13 11:00:55;;;;;;;64.45;34.85;;;;;;;;;;5033574;28;20083;-50
2021/12/13 11:03:22;;;;;;;62.22;34.90;;;;;;;;;;5033461;28;20025;-47
2021/12/13 11:05:49;;;;;;;60.70;32.60;;;;;;;;;;5033492;28;20051;-46
2021/12/13 11:08:16;;;;;;;66.07;36.67;;;;;;;;;;5033398;28;20022;-49
2021/12/13 11:10:47;;;;;;;64.78;34.33;;;;;;;;;;5033288;28;20033;-46
2021/12/13 11:13:14;;;;;;;77.32;38.17;;;;;;;;;;5031889;28;20041;-52
2021/12/13 11:15:42;;;;;;;90.07;42.72;;;;;;;;;;5033139;28;21999;-52
2021/12/13 11:18:11;;;;;;;67.47;36.65;;;;;;;;;;5033425;28;20037;-44
2021/12/13 11:20:39;;;;;;;85.10;43.85;;;;;;;;;;5033100;28;20074;-49
2021/12/13 11:23:06;;;;;;;77.47;42.42;;;;;;;;;;5033344;28;20045;-49
2021/12/13 11:25:39;;;;;;;65.20;37.22;;;;;;;;;;5032973;28;20030;-50
2021/12/13 11:28:05;;;;;;;89.65;45.63;;;;;;;;;;5033322;28;20035;-42
2021/12/13 11:30:35;;;;;;;85.57;44.60;;;;;;;;;;5033157;28;20029;-49
2021/12/13 11:33:23;;;;;;;68.65;36.90;;;;;;;;;;5033120;28;20017;-52
2021/12/13 11:36:10;;;;;;;90.10;43.95;;;;;;;;;;5033044;28;20068;-42
2021/12/13 11:38:44;;;;;;;79.63;45.17;;;;;;;;;;5033027;28;20099;-47
2021/12/13 11:41:13;;;;;;;75.88;42.08;;;;;;;;;;5033063;28;20017;-49
2021/12/13 11:43:58;;;;;;;67.18;37.92;;;;;;;;;;5032949;28;20048;-52
2021/12/13 11:46:28;;;;;;;63.67;37.90;;;;;;;;;;5032973;28;20040;-46
2021/12/13 11:49:10;;;;;;;64.28;34.08;;;;;;;;;;5032978;28;20109;-53
2021/12/13 11:51:55;;;;;;;81.53;42.58;;;;;;;;;;5032910;28;20022;-45
2021/12/13 11:54:30;;;;;;;57.63;33.90;;;;;;;;;;5032904;28;20096;-51
2021/12/13 11:57:14;;;;;;;53.83;32.58;;;;;;;;;;5032663;28;20029;-46
2021/12/13 11:59:49;;;;;;;61.95;36.65;;;;;;;;;;5032809;28;20025;-46
2021/12/13 12:02:34;;;;;;;71.28;37.65;;;;;;;;;;5032900;28;20026;-41
2021/12/13 12:05:12;;;;;;;63.15;36.28;;;;;;;;;;5032829;28;20030;-45
2021/12/13 12:07:53;;;;;;;73.22;40.13;;;;;;;;;;5032760;28;20078;-47
2021/12/13 12:10:26;;;;;;;79.40;40.72;;;;;;;;;;5032835;28;20021;-45
2021/12/13 12:13:05;;;;;;;92.35;47.25;;;;;;;;;;5032730;28;20459;-44
2021/12/13 12:15:31;;;;;;;91.40;47.20;;;;;;;;;;5032272;28;20037;-42
2021/12/13 12:18:00;;;;;;;99.28;52.25;;;;;;;;;;5032663;28;20044;-45
2021/12/13 12:20:28;;;;;;;76.90;41.33;;;;;;;;;;5032821;28;20082;-44
2021/12/13 12:23:00;;;;;;;84.68;39.58;;;;;;;;;;5032587;28;20515;-50
2021/12/13 12:25:28;;;;;;;69.07;35.65;;;;;;;;;;5032765;28;20029;-45
2021/12/13 12:27:57;;;;;;;72.88;39.58;;;;;;;;;;5032634;28;20034;-44
2021/12/13 12:30:26;;;;;;;93.78;43.88;;;;;;;;;;5032663;28;20036;-42
2021/12/13 12:32:57;;;;;;;56.25;31.23;;;;;;;;;;5033677;28;20036;-42
2021/12/13 12:35:31;;;;;;;59.15;32.83;;;;;;;;;;5036406;28;20029;-45
2021/12/13 12:38:00;;;;;;;52.38;29.42;;;;;;;;;;5036412;28;20029;-52
2021/12/13 12:40:26;;;;;;;59.42;33.53;;;;;;;;;;5036148;28;20076;-47
2021/12/13 12:42:59;;;;;;;72.22;36.13;;;;;;;;;;5036146;28;20481;-45
2021/12/13 12:45:31;;;;;;;47.83;27.75;;;;;;;;;;5036335;28;20121;-44
2021/12/13 12:48:05;;;;;;;56.33;30.25;;;;;;;;;;5036056;28;20030;-43
2021/12/13 12:50:35;;;;;;;58.67;31.80;;;;;;;;;;5036022;28;20029;-43
2021/12/13 12:53:08;;;;;;;45.97;27.73;;;;;;;;;;5035978;28;20060;-44
2021/12/13 12:55:38;;;;;;;57.42;30.13;;;;;;;;;;5035758;28;20037;-45
2021/12/13 12:58:12;;;;;;;66.25;36.72;;;;;;;;;;5036034;28;20025;-43
2021/12/13 13:00:39;;;;;;;55.97;31.58;;;;;;;;;;5035692;28;20462;-48
2021/12/13 13:03:05;;;;;;;59.75;31.50;;;;;;;;;;5035708;28;20025;-52
2021/12/13 13:05:31;;;;;;;48.05;26.48;;;;;;;;;;5036081;28;20026;-51
2021/12/13 13:07:58;;;;;;;46.85;27.63;;;;;;;;;;5035672;28;20049;-47
2021/12/13 13:13:03;;;;;;;48.30;28.02;;;;;;;;;;5035525;28;20048;-42
2021/12/13 13:15:43;;;;;;;43.65;26.70;;;;;;;;;;5035429;28;20041;-48
2021/12/13 13:18:14;;;;;;;49.20;28.05;;;;;;;;;;5035429;28;20568;-43
2021/12/13 13:20:43;;;;;;;70.65;40.75;;;;;;;;;;5035531;28;20022;-43
2021/12/13 13:23:11;;;;;;;76.35;43.47;;;;;;;;;;5035397;28;20033;-42
2021/12/13 13:25:39;;;;;;;85.00;47.45;;;;;;;;;;5035324;28;20033;-43
2021/12/13 13:28:21;;;;;;;93.65;50.17;;;;;;;;;;5035251;28;20029;-45
2021/12/13 13:30:55;;;;;;;94.97;53.22;;;;;;;;;;5035138;28;20026;-42
2021/12/13 13:33:36;;;;;;;71.88;40.97;;;;;;;;;;5035243;28;20030;-42
2021/12/13 13:36:04;;;;;;;68.80;37.45;;;;;;;;;;5035038;28;20041;-42
2021/12/13 13:38:30;;;;;;;61.38;34.50;;;;;;;;;;5035027;28;20124;-42
2021/12/13 13:40:56;;;;;;;56.40;32.30;;;;;;;;;;5034966;28;20025;-42
2021/12/13 13:43:23;;;;;;;55.03;32.78;;;;;;;;;;5034751;28;20091;-45
2021/12/13 13:45:54;;;;;;;58.40;32.30;;;;;;;;;;5034789;28;20049;-42
2021/12/13 13:48:29;;;;;;;62.75;34.33;;;;;;;;;;5034772;28;20021;-43
2021/12/13 13:51:00;;;;;;;73.20;41.05;;;;;;;;;;5034858;28;20018;-44
2021/12/13 13:53:31;;;;;;;86.85;44.60;;;;;;;;;;5034958;28;20087;-52
2021/12/13 13:56:03;;;;;;;96.17;49.13;;;;;;;;;;5034828;28;20128;-49
2021/12/13 13:58:32;;;;;;;88.53;44.50;;;;;;;;;;5034644;28;20025;-47
2021/12/13 14:01:02;;;;;;;82.47;40.35;;;;;;;;;;5034499;28;20096;-49
2021/12/13 14:03:39;;;;;;;101.85;50.53;;;;;;;;;;5034561;28;20020;-47
2021/12/13 14:06:06;;;;;;;114.03;54.38;;;;;;;;;;5034449;28;20029;-50
2021/12/13 14:08:36;;;;;;;108.55;56.08;;;;;;;;;;5034554;28;20022;-45
2021/12/13 14:11:03;;;;;;;101.60;52.15;;;;;;;;;;5034454;28;20025;-45
2021/12/13 14:13:35;;;;;;;86.72;47.28;;;;;;;;;;5034330;28;20026;-46
2021/12/13 14:16:08;;;;;;;77.80;42.40;;;;;;;;;;5034056;28;20045;-45
2021/12/13 14:18:34;;;;;;;92.57;48.90;;;;;;;;;;5034428;28;20017;-45
2021/12/13 14:21:03;;;;;;;89.82;45.58;;;;;;;;;;5034297;28;20392;-47
2021/12/13 14:23:35;;;;;;;88.60;46.45;;;;;;;;;;5034311;28;20021;-50
2021/12/13 14:26:01;;;;;;;;;;;;;;;;;;5033280;28;20112;-43
2021/12/13 14:28:38;;;;;;;90.53;46.67;;;;;;;;;;5034126;28;19952;-45
2021/12/13 14:31:07;;;;;;;90.57;46.33;;;;;;;;;;5034260;28;20038;-47
2021/12/13 14:33:36;;;;;;;86.63;44.92;;;;;;;;;;5034156;28;20045;-51
2021/12/13 14:36:05;;;;;;;81.55;42.88;;;;;;;;;;5034032;28;20037;-47
2021/12/13 14:38:32;;;;;;;87.90;45.60;;;;;;;;;;5033947;28;20021;-47
2021/12/13 14:40:59;;;;;;;92.32;48.15;;;;;;;;;;5033964;28;20032;-51
2021/12/13 14:43:27;;;;;;;97.57;51.08;;;;;;;;;;5034092;28;20052;-45
2021/12/13 14:45:55;;;;;;;96.97;49.33;;;;;;;;;;5033697;28;20072;-44
2021/12/13 14:48:23;;;;;;;96.20;48.17;;;;;;;;;;5033670;28;20405;-43
2021/12/13 14:50:54;;;;;;;95.28;50.22;;;;;;;;;;5033907;28;20024;-48